Terminal Aerodrome Forecast
Issued by NWS Lake Charles, LA

Home | Current Version | Previous Version | Text Only | Print | Product List | Glossary On
Versions: 1 2 3 4 5 6 7 8 9 10 11 12 13 14
000
FTUS44 KLCH 290520
TAFLFT
TAF
KLFT 290520Z 2906/3006 22005KT P6SM FEW050
     FM291300 33006KT P6SM BKN014
     FM291600 02004KT P6SM SCT030
     FM292100 VRB04KT P6SM VCTS BKN035CB
     FM300000 25003KT P6SM SCT070=

USA.gov is the U.S. government's official web portal to all federal, state and local government web resources and services.